Time;durP1;ratioP1;P1;durP2;ratioP2;P2;SDS_P1;SDS_P2;PMS_P1;PMS_P2;Temp;Humidity;BMP_temperature;BMP_pressure;BME280_temperature;BME280_humidity;BME280_pressure;Samples;Min_cycle;Max_cycle;Signal;HPM_P1;HPM_P2
2024/01/21 00:00:13;;;;;;;68.13;24.03;;;-7.90;91.80;;;;;;5011355;28;20481;-62
2024/01/21 00:02:40;;;;;;;45.43;23.33;;;-8.00;92.30;;;;;;5001657;28;20608;-63
2024/01/21 00:05:08;;;;;;;69.97;26.27;;;-7.90;92.50;;;;;;4961707;28;20912;-62
2024/01/21 00:07:38;;;;;;;90.43;25.67;;;-8.10;92.00;;;;;;4968785;28;20538;-63
2024/01/21 00:10:08;;;;;;;50.80;24.10;;;-8.10;92.00;;;;;;4990058;28;20476;-63
2024/01/21 00:12:35;;;;;;;57.60;21.77;;;-8.00;92.20;;;;;;5003998;28;20969;-62
2024/01/21 00:15:02;;;;;;;54.23;20.20;;;-7.70;92.30;;;;;;4996291;28;21487;-62
2024/01/21 00:17:28;;;;;;;42.73;20.30;;;-7.60;92.30;;;;;;4977016;28;20520;-62
2024/01/21 00:19:56;;;;;;;41.80;18.30;;;-7.40;92.20;;;;;;5013543;28;20541;-63
2024/01/21 00:22:24;;;;;;;68.10;21.53;;;-7.20;91.80;;;;;;4987122;28;21071;-63
2024/01/21 00:24:51;;;;;;;56.90;22.07;;;-7.20;91.40;;;;;;4980901;28;21067;-62
2024/01/21 00:27:19;;;;;;;64.73;22.70;;;-7.10;91.30;;;;;;5007128;28;20580;-63
2024/01/21 00:29:46;;;;;;;61.00;23.27;;;-7.10;90.20;;;;;;4992063;28;20483;-62
2024/01/21 00:32:13;;;;;;;48.20;20.77;;;-7.20;90.10;;;;;;5004847;28;20484;-63
2024/01/21 00:34:40;;;;;;;53.43;20.70;;;-7.10;90.20;;;;;;4988746;28;20935;-63
2024/01/21 00:37:07;;;;;;;40.47;18.97;;;-7.10;90.20;;;;;;4996940;28;20485;-62
2024/01/21 00:39:36;;;;;;;38.83;17.27;;;-7.20;90.10;;;;;;4972570;28;20847;-65
2024/01/21 00:42:03;;;;;;;50.57;15.33;;;-7.40;90.30;;;;;;4981192;28;20555;-65
2024/01/21 00:44:29;;;;;;;31.80;14.67;;;-7.50;91.00;;;;;;4996214;28;20477;-65
2024/01/21 00:46:56;;;;;;;55.90;17.67;;;-7.40;92.00;;;;;;4972080;28;20585;-65
2024/01/21 00:49:23;;;;;;;39.37;14.17;;;-7.30;92.00;;;;;;4986456;28;20542;-66
2024/01/21 00:51:50;;;;;;;47.97;19.53;;;-7.20;91.90;;;;;;4996953;28;20519;-65
2024/01/21 00:54:17;;;;;;;41.87;19.90;;;-7.20;91.50;;;;;;4984688;28;20484;-65
2024/01/21 00:56:45;;;;;;;45.13;19.80;;;-7.10;91.00;;;;;;5010472;28;20487;-64
2024/01/21 00:59:12;;;;;;;42.00;19.23;;;-7.20;90.30;;;;;;5012377;28;20481;-65
2024/01/21 01:01:39;;;;;;;40.13;18.53;;;-7.40;90.00;;;;;;5001376;28;20476;-66
2024/01/21 01:04:06;;;;;;;41.40;18.80;;;-7.30;90.60;;;;;;5010010;28;20480;-66
2024/01/21 01:06:33;;;;;;;37.60;18.90;;;-7.50;90.10;;;;;;4990291;28;22088;-65
2024/01/21 01:09:05;;;;;;;35.63;19.97;;;-7.70;89.70;;;;;;5012362;28;21004;-65
2024/01/21 01:11:32;;;;;;;43.77;19.67;;;-7.90;89.10;;;;;;5005476;28;20488;-65
2024/01/21 01:14:00;;;;;;;33.77;14.60;;;-8.00;89.10;;;;;;5003829;28;20499;-65
2024/01/21 01:16:27;;;;;;;62.33;19.63;;;-8.10;90.60;;;;;;5003513;28;20569;-65
2024/01/21 01:18:54;;;;;;;29.63;15.70;;;-8.10;91.20;;;;;;4995668;28;20485;-65
2024/01/21 01:21:21;;;;;;;55.27;18.27;;;-8.00;91.40;;;;;;4998704;28;21082;-64
2024/01/21 01:23:48;;;;;;;38.70;16.60;;;-7.90;91.30;;;;;;4975140;28;20482;-65
2024/01/21 01:26:15;;;;;;;30.33;16.10;;;-7.80;91.20;;;;;;5002373;28;21299;-66
2024/01/21 01:28:42;;;;;;;39.13;17.33;;;-7.70;90.90;;;;;;4995958;28;20477;-65
2024/01/21 01:31:16;;;;;;;39.20;17.63;;;-7.60;91.20;;;;;;4973871;28;20477;-65
2024/01/21 01:33:43;;;;;;;41.40;19.40;;;-7.50;91.30;;;;;;5009861;28;20487;-64
2024/01/21 01:36:10;;;;;;;58.53;21.50;;;-7.40;91.20;;;;;;4994508;28;20477;-65
2024/01/21 01:38:37;;;;;;;54.17;20.40;;;-7.30;90.90;;;;;;4977562;28;21201;-65
2024/01/21 01:41:05;;;;;;;44.00;18.70;;;-7.30;90.90;;;;;;4977167;28;20535;-66
2024/01/21 01:43:32;;;;;;;51.70;20.57;;;-7.20;90.80;;;;;;4989971;28;20481;-66
2024/01/21 01:46:00;;;;;;;39.90;16.23;;;;;;;;;;5001537;28;20480;-65
2024/01/21 01:48:29;;;;;;;45.20;18.40;;;-7.10;90.80;;;;;;5007680;28;20480;-63
2024/01/21 01:50:59;;;;;;;53.80;17.87;;;-7.00;90.70;;;;;;5009192;28;20508;-62
2024/01/21 01:53:26;;;;;;;45.93;17.67;;;-7.10;90.40;;;;;;4971184;28;20543;-63
2024/01/21 01:55:53;;;;;;;35.30;18.00;;;-7.10;90.00;;;;;;4994769;28;20485;-62
2024/01/21 01:58:22;;;;;;;38.83;16.90;;;-7.40;88.80;;;;;;4988298;28;20946;-66
2024/01/21 02:00:49;;;;;;;6.73;5.43;;;;;;;;;;4999948;28;20830;-66
2024/01/21 02:03:16;;;;;;;42.60;19.87;;;-7.80;90.00;;;;;;4993556;28;20495;-65
2024/01/21 02:05:45;;;;;;;29.53;11.77;;;-7.80;90.60;;;;;;5003925;28;20472;-65
2024/01/21 02:08:12;;;;;;;43.83;15.97;;;-7.70;91.00;;;;;;4982201;28;20475;-65
2024/01/21 02:10:39;;;;;;;30.70;15.47;;;-7.70;90.80;;;;;;4976634;28;20485;-66
2024/01/21 02:13:06;;;;;;;28.70;13.97;;;-8.00;90.00;;;;;;4980686;28;20469;-65
2024/01/21 02:15:33;;;;;;;46.53;19.30;;;-8.00;90.20;;;;;;4946542;28;20481;-65
2024/01/21 02:17:59;;;;;;;47.87;19.13;;;-8.20;90.30;;;;;;5005154;28;20537;-65
2024/01/21 02:20:26;;;;;;;19.93;9.30;;;-8.30;91.00;;;;;;5007734;28;21014;-65
2024/01/21 02:22:58;;;;;;;47.93;21.67;;;-8.30;91.00;;;;;;4986697;28;20545;-66
2024/01/21 02:25:25;;;;;;;38.57;16.77;;;-8.40;91.50;;;;;;5001660;28;20886;-65
2024/01/21 02:27:52;;;;;;;57.73;25.33;;;-8.50;91.50;;;;;;4989128;28;20485;-65
2024/01/21 02:30:18;;;;;;;39.13;18.57;;;-8.50;91.80;;;;;;4986660;28;20483;-64
2024/01/21 02:32:45;;;;;;;52.80;22.23;;;-8.40;92.30;;;;;;5013429;28;20615;-65
2024/01/21 02:35:12;;;;;;;40.47;18.23;;;-8.40;92.40;;;;;;5009276;28;20481;-65
2024/01/21 02:37:41;;;;;;;44.00;17.77;;;-8.40;92.00;;;;;;4986778;28;20572;-65
2024/01/21 02:40:10;;;;;;;48.30;18.07;;;-8.20;92.00;;;;;;5006186;28;20487;-65
2024/01/21 02:42:37;;;;;;;44.00;17.47;;;-8.20;91.70;;;;;;5004908;28;20621;-65
2024/01/21 02:45:05;;;;;;;37.73;17.90;;;-8.20;91.70;;;;;;5000383;28;20931;-66
2024/01/21 02:47:31;;;;;;;14.27;5.77;;;-8.20;91.90;;;;;;4969002;28;20543;-65
2024/01/21 02:49:57;;;;;;;43.23;19.63;;;-8.10;92.80;;;;;;5015621;28;20464;-65
2024/01/21 02:52:24;;;;;;;47.00;21.63;;;-8.00;93.10;;;;;;5000188;28;20238;-65
2024/01/21 02:54:51;;;;;;;37.03;14.17;;;-7.70;92.50;;;;;;5000303;28;20508;-64
2024/01/21 02:57:19;;;;;;;41.17;18.00;;;-7.70;92.40;;;;;;5014631;28;20480;-65
2024/01/21 02:59:46;;;;;;;62.00;18.97;;;-7.50;92.60;;;;;;5013476;28;20480;-65
2024/01/21 03:02:13;;;;;;;41.07;20.50;;;-7.50;92.30;;;;;;4999092;28;20551;-66
2024/01/21 03:04:40;;;;;;;45.43;18.37;;;-7.60;91.70;;;;;;5010371;28;20893;-65
2024/01/21 03:07:07;;;;;;;46.27;19.07;;;-7.50;92.30;;;;;;4963948;28;20492;-65
2024/01/21 03:09:34;;;;;;;39.00;16.70;;;-7.40;92.40;;;;;;4979689;28;20551;-63
2024/01/21 03:12:00;;;;;;;40.50;17.27;;;-7.20;92.40;;;;;;4999921;28;20534;-62
2024/01/21 03:14:29;;;;;;;44.47;17.90;;;-7.00;92.60;;;;;;4984002;28;20478;-63
2024/01/21 03:16:56;;;;;;;51.40;20.47;;;-6.90;92.60;;;;;;5002388;28;20485;-62
2024/01/21 03:19:23;;;;;;;40.27;19.50;;;-6.90;92.30;;;;;;5025275;28;20515;-62
2024/01/21 03:21:50;;;;;;;46.80;17.50;;;-7.00;91.10;;;;;;5020540;28;20534;-62
2024/01/21 03:24:17;;;;;;;42.17;18.37;;;-7.00;91.00;;;;;;5009506;28;20488;-62
2024/01/21 03:26:44;;;;;;;31.10;16.10;;;-7.10;91.10;;;;;;4991741;28;20482;-62
2024/01/21 03:29:11;;;;;;;30.23;14.10;;;-6.90;91.60;;;;;;5009336;28;20539;-63
2024/01/21 03:31:39;;;;;;;35.07;15.50;;;-6.90;91.90;;;;;;5002790;28;20489;-63
2024/01/21 03:34:06;;;;;;;48.50;16.83;;;-6.70;92.50;;;;;;4995201;28;20481;-62
2024/01/21 03:36:33;;;;;;;33.80;16.27;;;-6.60;92.70;;;;;;4996877;28;20481;-63
2024/01/21 03:39:00;;;;;;;47.30;17.00;;;-6.50;92.80;;;;;;5008787;28;20534;-63
2024/01/21 03:41:26;;;;;;;49.20;17.60;;;-6.50;92.90;;;;;;4986144;28;20921;-63
2024/01/21 03:43:53;;;;;;;39.83;17.90;;;-6.40;92.90;;;;;;5027611;28;20475;-62
2024/01/21 03:46:20;;;;;;;54.33;21.17;;;-6.30;92.60;;;;;;5032128;28;20484;-63
2024/01/21 03:48:48;;;;;;;47.73;18.50;;;-6.30;92.10;;;;;;5014821;28;20484;-63
2024/01/21 03:51:16;;;;;;;37.47;16.13;;;-6.30;91.70;;;;;;4975065;28;20476;-63
2024/01/21 03:53:43;;;;;;;45.10;16.97;;;-6.30;91.70;;;;;;5029822;28;20483;-63
2024/01/21 03:56:16;;;;;;;57.43;18.70;;;-6.30;92.20;;;;;;5020724;28;21003;-63
2024/01/21 03:58:43;;;;;;;29.57;13.63;;;-6.20;92.50;;;;;;4962186;28;20495;-63
2024/01/21 04:01:10;;;;;;;35.13;17.93;;;-6.20;92.30;;;;;;4963245;28;20477;-63
2024/01/21 04:03:37;;;;;;;32.60;17.13;;;-6.10;92.10;;;;;;4968938;28;20484;-63
2024/01/21 04:06:05;;;;;;;31.83;15.97;;;-6.10;92.00;;;;;;4970465;28;20594;-63
2024/01/21 04:08:33;;;;;;;58.20;18.87;;;-6.10;91.90;;;;;;4995293;28;20492;-63
2024/01/21 04:11:00;;;;;;;36.83;18.07;;;-6.00;91.90;;;;;;5007456;28;20489;-62
2024/01/21 04:13:27;;;;;;;50.10;18.33;;;-6.00;91.80;;;;;;4991797;28;20484;-62
2024/01/21 04:15:54;;;;;;;44.07;19.80;;;-6.00;91.80;;;;;;4975874;28;20488;-63
2024/01/21 04:18:21;;;;;;;57.90;23.83;;;-6.00;91.90;;;;;;4994347;28;20500;-63
2024/01/21 04:20:47;;;;;;;56.07;22.63;;;-6.00;91.90;;;;;;4981205;28;21297;-66
2024/01/21 04:23:16;;;;;;;38.63;17.23;;;-6.00;91.80;;;;;;4999186;28;20525;-66
2024/01/21 04:25:43;;;;;;;39.70;20.33;;;-6.00;91.70;;;;;;5028952;28;20483;-65
2024/01/21 04:28:10;;;;;;;38.30;21.33;;;-6.00;91.60;;;;;;5030338;28;20546;-65
2024/01/21 04:30:37;;;;;;;37.37;19.63;;;-6.00;91.40;;;;;;5011670;28;20928;-65
2024/01/21 04:33:04;;;;;;;34.60;18.57;;;-6.00;91.30;;;;;;5007775;28;20491;-65
2024/01/21 04:35:31;;;;;;;41.00;20.23;;;-6.00;91.10;;;;;;5004470;28;20484;-66
2024/01/21 04:37:57;;;;;;;32.77;17.67;;;-6.10;90.80;;;;;;5010094;28;20897;-66
2024/01/21 04:40:26;;;;;;;39.00;19.50;;;-6.10;91.10;;;;;;5013340;28;21018;-65
2024/01/21 04:42:53;;;;;;;34.70;18.40;;;-6.20;90.80;;;;;;5002246;28;20485;-65
2024/01/21 04:45:20;;;;;;;40.73;20.47;;;-6.40;90.50;;;;;;5026239;28;20505;-65
2024/01/21 04:47:47;;;;;;;50.70;17.67;;;-6.50;91.20;;;;;;5028453;28;20472;-65
2024/01/21 04:50:14;;;;;;;43.30;17.97;;;-6.60;91.10;;;;;;5015238;28;20575;-65
2024/01/21 04:52:40;;;;;;;37.93;17.60;;;-6.60;91.40;;;;;;5017402;28;20488;-65
2024/01/21 04:55:09;;;;;;;44.10;18.90;;;-6.60;91.50;;;;;;4969329;28;20477;-65
2024/01/21 04:57:38;;;;;;;36.60;19.80;;;-6.40;91.60;;;;;;4981297;28;20583;-65
2024/01/21 05:00:06;;;;;;;45.40;18.33;;;-6.40;91.60;;;;;;4959815;28;20848;-66
2024/01/21 05:02:33;;;;;;;37.93;18.10;;;-6.40;91.60;;;;;;4997492;28;20485;-65
2024/01/21 05:05:00;;;;;;;58.00;22.00;;;-6.40;91.10;;;;;;5000983;28;20492;-65
2024/01/21 05:07:26;;;;;;;34.43;19.77;;;-6.60;90.70;;;;;;5020557;28;20565;-65
2024/01/21 05:09:53;;;;;;;34.60;16.90;;;-6.60;91.00;;;;;;5008438;28;20539;-65
2024/01/21 05:12:20;;;;;;;34.93;17.90;;;-6.50;91.30;;;;;;4983528;28;20541;-65
2024/01/21 05:14:48;;;;;;;41.60;16.77;;;-6.40;91.70;;;;;;4989507;28;20533;-65
2024/01/21 05:17:15;;;;;;;34.00;18.43;;;-6.50;91.20;;;;;;4989329;28;20492;-65
2024/01/21 05:19:42;;;;;;;49.90;22.13;;;-6.50;91.20;;;;;;5022725;28;20476;-66
2024/01/21 05:22:09;;;;;;;50.77;20.30;;;-6.60;91.70;;;;;;5008138;28;20493;-65
2024/01/21 05:24:36;;;;;;;51.77;22.07;;;-6.70;91.70;;;;;;5013601;28;20479;-65
2024/01/21 05:27:04;;;;;;;49.07;19.00;;;-6.80;91.50;;;;;;5014069;28;20845;-65
2024/01/21 05:29:31;;;;;;;39.77;18.50;;;-6.80;92.10;;;;;;4992967;28;20477;-65
2024/01/21 05:31:59;;;;;;;46.83;18.33;;;-6.70;92.40;;;;;;5011490;28;20935;-66
2024/01/21 05:34:26;;;;;;;58.77;21.17;;;-6.70;92.20;;;;;;4984376;28;20474;-65
2024/01/21 05:36:53;;;;;;;34.30;15.70;;;-6.60;92.30;;;;;;4995073;28;20503;-66
2024/01/21 05:39:20;;;;;;;35.20;17.67;;;-6.50;92.00;;;;;;5002153;28;20485;-65
2024/01/21 05:42:01;;;;;;;45.93;17.90;;;-6.60;91.60;;;;;;5008280;28;20478;-65
2024/01/21 05:44:28;;;;;;;35.03;16.90;;;-6.60;91.70;;;;;;5003546;28;20882;-65
2024/01/21 05:46:55;;;;;;;38.63;15.67;;;-6.60;91.80;;;;;;4970697;28;20493;-65
2024/01/21 05:49:24;;;;;;;40.53;17.63;;;-6.70;92.00;;;;;;5023749;28;20492;-65
2024/01/21 05:51:51;;;;;;;82.00;24.27;;;;;;;;;;5010250;28;20829;-65
2024/01/21 05:54:18;;;;;;;37.07;19.37;;;-6.90;91.90;;;;;;4962998;28;20493;-65
2024/01/21 05:56:45;;;;;;;37.43;17.80;;;-6.80;92.40;;;;;;4977289;28;20532;-65
2024/01/21 05:59:16;;;;;;;64.53;25.57;;;-7.00;92.30;;;;;;5016599;28;21752;-65
2024/01/21 06:01:43;;;;;;;42.83;18.57;;;-7.10;92.60;;;;;;5016841;28;20487;-65
2024/01/21 06:04:10;;;;;;;41.80;16.70;;;-7.00;93.20;;;;;;4994664;28;20569;-65
2024/01/21 06:06:39;;;;;;;38.80;16.70;;;-6.80;93.50;;;;;;5022209;28;20473;-65
2024/01/21 06:09:06;;;;;;;39.67;17.17;;;-6.70;93.20;;;;;;5024721;28;20492;-66
2024/01/21 06:11:33;;;;;;;44.03;19.90;;;-6.70;92.90;;;;;;5006739;28;20492;-65
2024/01/21 06:14:00;;;;;;;46.23;17.17;;;-6.70;92.90;;;;;;5005051;28;20494;-65
2024/01/21 06:16:27;;;;;;;28.50;15.37;;;-6.60;93.00;;;;;;5010098;28;20530;-66
2024/01/21 06:18:53;;;;;;;35.53;17.90;;;-6.50;93.00;;;;;;5004981;28;20488;-66
2024/01/21 06:21:20;;;;;;;50.87;20.70;;;-6.60;92.20;;;;;;5026811;28;20514;-64
2024/01/21 06:23:49;;;;;;;34.60;16.13;;;-6.60;92.30;;;;;;4971867;28;20486;-65
2024/01/21 06:26:20;;;;;;;76.03;18.00;;;-6.40;93.00;;;;;;5001715;28;20536;-65
2024/01/21 06:28:47;;;;;;;52.07;21.50;;;-6.30;92.90;;;;;;4995117;28;20940;-65
2024/01/21 06:31:14;;;;;;;55.97;18.23;;;-6.30;93.10;;;;;;5002911;28;20477;-65
2024/01/21 06:33:42;;;;;;;42.57;15.83;;;-6.20;93.10;;;;;;5006285;28;20488;-65
2024/01/21 06:36:09;;;;;;;37.63;17.10;;;;;;;;;;5006649;28;20558;-65
2024/01/21 06:38:36;;;;;;;43.33;17.87;;;-6.10;93.30;;;;;;5004600;28;20496;-65
2024/01/21 06:41:04;;;;;;;21.67;8.63;;;-6.10;92.80;;;;;;5005149;28;20533;-65
2024/01/21 06:43:31;;;;;;;7.10;5.10;;;-6.30;93.10;;;;;;4981655;28;20563;-65
2024/01/21 06:45:58;;;;;;;33.77;15.13;;;-6.40;93.80;;;;;;5014257;28;20480;-64
2024/01/21 06:48:25;;;;;;;53.27;18.97;;;-6.30;93.60;;;;;;5003761;28;20485;-65
2024/01/21 06:50:53;;;;;;;38.13;17.37;;;-6.40;93.30;;;;;;4953759;28;20495;-65
2024/01/21 06:53:20;;;;;;;40.53;19.17;;;-6.30;93.50;;;;;;4982089;28;20496;-65
2024/01/21 06:55:47;;;;;;;44.90;19.33;;;-6.40;93.00;;;;;;4953169;28;21042;-65
2024/01/21 06:58:16;;;;;;;44.37;20.27;;;-6.50;93.10;;;;;;5002312;28;20480;-65
2024/01/21 07:00:43;;;;;;;55.40;18.77;;;-6.50;93.90;;;;;;5004146;28;20493;-65
2024/01/21 07:03:09;;;;;;;37.07;18.40;;;-6.30;94.20;;;;;;4986526;28;20492;-65
2024/01/21 07:05:36;;;;;;;56.87;19.83;;;-6.30;93.70;;;;;;5001181;28;20496;-65
2024/01/21 07:08:04;;;;;;;44.53;21.23;;;-6.40;93.60;;;;;;5031241;28;20483;-65
2024/01/21 07:10:34;;;;;;;39.17;18.00;;;;;;;;;;4997438;28;20928;-65
2024/01/21 07:13:01;;;;;;;30.07;15.70;;;-6.30;94.30;;;;;;4991153;28;20488;-65
2024/01/21 07:15:29;;;;;;;46.67;19.07;;;-6.10;94.40;;;;;;4998265;28;21236;-65
2024/01/21 07:17:55;;;;;;;42.60;17.50;;;-6.00;94.30;;;;;;4999077;28;20516;-65
2024/01/21 07:20:22;;;;;;;44.00;18.47;;;-5.90;94.30;;;;;;5029769;28;20634;-65
2024/01/21 07:22:49;;;;;;;54.57;17.57;;;-5.70;94.40;;;;;;5006628;28;20524;-66
2024/01/21 07:25:16;;;;;;;14.40;8.73;;;-5.60;94.50;;;;;;5006306;28;20564;-65
2024/01/21 07:27:44;;;;;;;37.07;17.50;;;-5.50;94.40;;;;;;5030445;28;21145;-65
2024/01/21 07:30:12;;;;;;;39.47;17.73;;;-5.40;95.40;;;;;;5021844;28;20538;-64
2024/01/21 07:32:41;;;;;;;58.63;24.13;;;-5.40;95.60;;;;;;5022368;28;20859;-65
2024/01/21 07:35:09;;;;;;;78.53;22.33;;;-5.00;99.90;;;;;;4983842;28;20477;-65
2024/01/21 07:37:37;;;;;;;47.17;21.40;;;-4.60;99.90;;;;;;4982012;28;20493;-64
2024/01/21 07:40:05;;;;;;;20.27;9.40;;;-4.00;99.90;;;;;;4991532;28;20487;-64
2024/01/21 07:42:32;;;;;;;59.73;25.13;;;-3.50;99.90;;;;;;4991657;28;20868;-63
2024/01/21 07:44:59;;;;;;;42.40;24.50;;;;;;;;;;4966605;28;20557;-62
2024/01/21 07:47:26;;;;;;;40.07;18.37;;;-2.70;99.90;;;;;;4998766;28;20505;-62
2024/01/21 07:49:55;;;;;;;44.00;23.03;;;-2.20;99.90;;;;;;5004699;28;20485;-62
2024/01/21 07:52:22;;;;;;;38.37;25.87;;;-1.90;99.90;;;;;;4980714;28;20783;-62
2024/01/21 07:54:49;;;;;;;30.03;17.70;;;-1.80;99.90;;;;;;4992918;28;20966;-62
2024/01/21 07:57:16;;;;;;;37.27;21.97;;;-1.50;99.90;;;;;;4993536;28;20488;-63
2024/01/21 07:59:43;;;;;;;33.17;25.00;;;-1.50;99.90;;;;;;5012418;28;20832;-63
2024/01/21 08:02:09;;;;;;;34.63;23.87;;;-1.40;99.90;;;;;;4965530;28;21051;-63
2024/01/21 08:04:36;;;;;;;29.40;12.50;;;-1.20;99.90;;;;;;5025032;28;20731;-63
2024/01/21 08:07:05;;;;;;;31.70;21.00;;;-1.20;99.90;;;;;;5013290;28;20941;-63
2024/01/21 08:09:32;;;;;;;47.67;18.37;;;-1.10;99.90;;;;;;4993769;28;20527;-63
2024/01/21 08:11:59;;;;;;;26.13;18.93;;;-1.10;99.90;;;;;;5001551;28;20554;-64
2024/01/21 08:14:26;;;;;;;32.33;19.50;;;-1.00;99.90;;;;;;4991734;28;20550;-63
2024/01/21 08:16:53;;;;;;;41.67;21.97;;;-0.90;99.90;;;;;;4991692;28;20926;-64
2024/01/21 08:19:20;;;;;;;24.97;15.77;;;-0.90;99.90;;;;;;4998164;28;20501;-64
2024/01/21 08:21:47;;;;;;;32.07;14.27;;;-0.70;99.90;;;;;;4970514;28;20928;-63
2024/01/21 08:24:15;;;;;;;32.73;17.60;;;-0.60;99.90;;;;;;4991655;28;20475;-64
2024/01/21 08:26:42;;;;;;;14.23;7.47;;;-0.40;99.90;;;;;;4994980;28;20558;-63
2024/01/21 08:29:12;;;;;;;23.87;11.27;;;-0.30;99.90;;;;;;5019725;28;20483;-64
2024/01/21 08:31:43;;;;;;;33.93;14.67;;;-0.30;99.90;;;;;;4999855;28;20548;-64
2024/01/21 08:34:10;;;;;;;16.30;7.60;;;-0.20;99.90;;;;;;5014730;28;20484;-64
2024/01/21 08:36:37;;;;;;;9.13;8.20;;;-0.20;99.90;;;;;;4992664;28;21210;-63
2024/01/21 08:39:06;;;;;;;17.90;7.67;;;-0.10;99.90;;;;;;5005601;28;20481;-63
2024/01/21 08:41:36;;;;;;;13.73;7.10;;;0.00;99.90;;;;;;4998618;28;20941;-64
2024/01/21 08:44:03;;;;;;;29.73;9.17;;;0.10;99.90;;;;;;5002690;28;20932;-64
2024/01/21 08:46:30;;;;;;;21.10;10.83;;;0.10;99.90;;;;;;5010176;28;20899;-64
2024/01/21 08:48:57;;;;;;;17.83;10.40;;;0.20;99.90;;;;;;4999093;28;20855;-64
2024/01/21 08:51:24;;;;;;;21.40;9.00;;;0.20;99.90;;;;;;5022355;28;20895;-64
2024/01/21 08:53:56;;;;;;;21.53;11.73;;;0.20;99.90;;;;;;4996539;28;20480;-64
2024/01/21 08:56:24;;;;;;;23.10;12.90;;;0.20;99.90;;;;;;5024030;28;20485;-64
2024/01/21 08:58:53;;;;;;;33.30;15.97;;;0.20;99.90;;;;;;5000228;28;20482;-65
2024/01/21 09:01:20;;;;;;;22.70;13.57;;;0.30;99.90;;;;;;5001311;28;20488;-65
2024/01/21 09:03:47;;;;;;;23.60;16.90;;;0.30;99.90;;;;;;4988372;28;20519;-62
2024/01/21 09:06:14;;;;;;;21.90;14.83;;;0.30;99.90;;;;;;5015290;28;20468;-64
2024/01/21 09:08:41;;;;;;;24.30;12.90;;;0.40;99.90;;;;;;4996987;28;20484;-63
2024/01/21 09:11:09;;;;;;;22.53;15.03;;;0.50;99.90;;;;;;5013123;28;20480;-62
2024/01/21 09:13:35;;;;;;;26.90;14.73;;;0.60;99.90;;;;;;5020131;28;20525;-65
2024/01/21 09:16:04;;;;;;;6.70;4.23;;;0.70;99.90;;;;;;5019152;28;20537;-64
2024/01/21 09:18:32;;;;;;;31.67;9.37;;;1.00;99.90;;;;;;5022243;28;20563;-65
2024/01/21 09:20:59;;;;;;;20.17;11.97;;;1.10;99.90;;;;;;5035944;28;21023;-65
2024/01/21 09:23:26;;;;;;;28.13;14.90;;;1.10;99.90;;;;;;5017437;28;20926;-65
2024/01/21 09:25:53;;;;;;;24.27;11.70;;;1.20;99.90;;;;;;5020832;28;20553;-65
2024/01/21 09:28:20;;;;;;;50.13;13.20;;;1.20;99.90;;;;;;5016220;28;20485;-65
2024/01/21 09:30:47;;;;;;;21.63;13.50;;;1.20;99.90;;;;;;4996240;28;20916;-66
2024/01/21 09:33:17;;;;;;;21.80;11.40;;;1.30;99.90;;;;;;5014202;28;20527;-65
2024/01/21 09:35:44;;;;;;;17.37;10.10;;;1.50;99.90;;;;;;5027942;28;20538;-65
2024/01/21 09:38:13;;;;;;;22.73;12.70;;;1.70;99.90;;;;;;5032829;28;20858;-65
2024/01/21 09:40:41;;;;;;;18.10;10.80;;;1.90;99.90;;;;;;5028931;28;20573;-65
2024/01/21 09:43:08;;;;;;;24.53;11.73;;;2.00;99.90;;;;;;5027098;28;20591;-65
2024/01/21 09:45:38;;;;;;;23.73;11.77;;;2.10;99.90;;;;;;5019205;28;20558;-65
2024/01/21 09:48:07;;;;;;;22.77;10.57;;;2.10;99.90;;;;;;4987225;28;20489;-64
2024/01/21 09:50:38;;;;;;;34.27;10.47;;;2.00;99.90;;;;;;5001422;28;20489;-64
2024/01/21 09:53:05;;;;;;;36.43;11.00;;;2.10;99.90;;;;;;5004854;28;20991;-65
2024/01/21 09:55:32;;;;;;;22.60;11.13;;;2.20;99.90;;;;;;4991209;28;20566;-65
2024/01/21 09:58:02;;;;;;;20.77;13.13;;;2.20;99.80;;;;;;5012872;28;20475;-65
2024/01/21 10:00:29;;;;;;;43.97;17.70;;;1.90;99.60;;;;;;5030019;28;20491;-65
2024/01/21 10:02:56;;;;;;;28.03;15.30;;;1.80;99.40;;;;;;4992097;28;20560;-65
2024/01/21 10:05:23;;;;;;;23.97;13.00;;;1.80;99.60;;;;;;4997827;28;20534;-65
2024/01/21 10:07:52;;;;;;;25.27;12.10;;;2.00;99.90;;;;;;4991386;28;20512;-64
2024/01/21 10:10:20;;;;;;;16.90;8.30;;;2.10;99.80;;;;;;4989834;28;20923;-65
2024/01/21 10:12:47;;;;;;;21.30;14.57;;;2.10;99.40;;;;;;5002235;28;20493;-63
2024/01/21 10:15:15;;;;;;;22.43;13.90;;;1.90;99.80;;;;;;4993260;28;20485;-63
2024/01/21 10:17:42;;;;;;;24.10;14.97;;;1.80;99.60;;;;;;5004493;28;20480;-63
2024/01/21 10:20:11;;;;;;;16.30;8.37;;;;;;;;;;5013669;28;20498;-63
2024/01/21 10:22:40;;;;;;;24.50;13.87;;;2.00;99.90;;;;;;5023543;28;20867;-64
2024/01/21 10:25:10;;;;;;;28.13;15.00;;;2.00;99.90;;;;;;4975975;28;21028;-65
2024/01/21 10:27:37;;;;;;;25.90;12.57;;;2.40;99.90;;;;;;5014698;28;20485;-64
2024/01/21 10:30:07;;;;;;;24.40;13.27;;;2.50;99.80;;;;;;5029913;28;20494;-64
2024/01/21 10:32:35;;;;;;;21.27;13.60;;;2.70;99.50;;;;;;5018256;28;20483;-64
2024/01/21 10:35:02;;;;;;;29.73;12.87;;;2.70;98.80;;;;;;4990726;28;20482;-64
2024/01/21 10:37:30;;;;;;;19.73;11.33;;;3.20;99.60;;;;;;4997574;28;20485;-64
2024/01/21 10:39:58;;;;;;;19.23;13.93;;;3.30;98.80;;;;;;4970969;28;20521;-64
2024/01/21 10:42:27;;;;;;;19.10;11.80;;;3.50;98.60;;;;;;4960122;28;20489;-64
2024/01/21 10:44:55;;;;;;;21.17;13.37;;;3.50;98.30;;;;;;5002668;28;21241;-64
2024/01/21 10:47:22;;;;;;;27.17;15.50;;;3.50;98.30;;;;;;4950591;28;20489;-64
2024/01/21 10:49:50;;;;;;;32.60;14.97;;;3.60;98.60;;;;;;4989915;28;20469;-64
2024/01/21 10:52:18;;;;;;;25.27;14.33;;;3.50;98.10;;;;;;5007291;28;20907;-64
2024/01/21 10:54:47;;;;;;;60.87;14.10;;;3.40;98.80;;;;;;5008154;28;20480;-64
2024/01/21 10:57:15;;;;;;;22.00;16.20;;;3.40;98.60;;;;;;4985672;28;20523;-64
2024/01/21 10:59:45;;;;;;;19.53;13.00;;;3.30;98.80;;;;;;5020364;28;20843;-64
2024/01/21 11:02:12;;;;;;;30.60;16.33;;;3.30;99.20;;;;;;5003543;28;20484;-65
2024/01/21 11:04:39;;;;;;;18.83;15.37;;;3.20;99.00;;;;;;5007400;28;20552;-65
2024/01/21 11:07:07;;;;;;;28.53;12.50;;;3.40;99.10;;;;;;4991707;28;20560;-65
2024/01/21 11:09:36;;;;;;;18.50;9.47;;;3.70;99.50;;;;;;4997006;28;20821;-65
2024/01/21 11:12:03;;;;;;;18.77;11.07;;;4.10;99.10;;;;;;5013307;28;21089;-65
2024/01/21 11:14:33;;;;;;;18.27;11.37;;;4.40;99.20;;;;;;5003821;28;20484;-65
2024/01/21 11:17:03;;;;;;;17.17;10.50;;;5.00;98.60;;;;;;5032755;28;20870;-65
2024/01/21 11:19:39;;;;;;;21.73;10.40;;;5.20;98.30;;;;;;5001203;28;20472;-66
2024/01/21 11:22:09;;;;;;;27.07;13.30;;;5.30;97.70;;;;;;4985150;28;20484;-66
2024/01/21 11:24:36;;;;;;;22.83;10.13;;;5.40;97.50;;;;;;5012273;28;20493;-67
2024/01/21 11:27:03;;;;;;;27.60;11.90;;;5.20;96.70;;;;;;5009639;28;20739;-67
2024/01/21 11:29:31;;;;;;;28.80;9.50;;;5.20;97.20;;;;;;4986533;28;20494;-67
2024/01/21 11:32:01;;;;;;;16.10;10.80;;;5.00;96.70;;;;;;5002616;28;20477;-67
2024/01/21 11:34:30;;;;;;;18.10;12.20;;;4.90;97.10;;;;;;4983989;28;20545;-67
2024/01/21 11:36:57;;;;;;;20.43;9.37;;;5.00;97.20;;;;;;4964370;28;20493;-67
2024/01/21 11:39:24;;;;;;;18.93;10.40;;;5.00;97.10;;;;;;4975279;28;20488;-65
2024/01/21 11:41:52;;;;;;;16.37;8.80;;;5.20;97.20;;;;;;4993659;28;20543;-66
2024/01/21 11:44:23;;;;;;;17.17;10.87;;;5.40;96.70;;;;;;4990548;28;20572;-63
2024/01/21 11:46:50;;;;;;;16.03;11.57;;;5.20;96.50;;;;;;4971345;28;20489;-64
2024/01/21 11:49:19;;;;;;;14.77;10.83;;;5.00;96.70;;;;;;4989814;28;20482;-65
2024/01/21 11:51:45;;;;;;;16.97;10.40;;;5.00;97.20;;;;;;4990962;28;20483;-65
2024/01/21 11:54:13;;;;;;;9.97;5.17;;;5.10;97.00;;;;;;5013387;28;20480;-64
2024/01/21 11:56:40;;;;;;;24.33;7.00;;;;;;;;;;4991839;28;20477;-64
2024/01/21 11:59:09;;;;;;;10.30;5.10;;;5.00;96.80;;;;;;4985435;28;20488;-65
2024/01/21 12:01:36;;;;;;;11.20;7.97;;;5.10;97.00;;;;;;4953282;28;20679;-64
2024/01/21 12:04:04;;;;;;;36.90;11.90;;;5.20;96.80;;;;;;5022073;28;20541;-64
2024/01/21 12:06:34;;;;;;;12.97;8.43;;;5.30;97.00;;;;;;4992641;28;20476;-62
2024/01/21 12:09:02;;;;;;;19.03;10.33;;;5.30;97.10;;;;;;5013588;28;20954;-62
2024/01/21 12:11:32;;;;;;;16.20;9.73;;;5.40;97.00;;;;;;4971010;28;20489;-65
2024/01/21 12:13:59;;;;;;;13.50;9.20;;;5.30;97.00;;;;;;5013181;28;20533;-64
2024/01/21 12:16:26;;;;;;;15.50;9.30;;;5.30;96.80;;;;;;5017632;28;20496;-64
2024/01/21 12:18:54;;;;;;;18.63;9.17;;;5.20;96.70;;;;;;5023039;28;20553;-63
2024/01/21 12:21:23;;;;;;;10.40;7.33;;;5.10;96.50;;;;;;4997498;28;20896;-65
2024/01/21 12:23:53;;;;;;;6.80;5.17;;;5.30;96.80;;;;;;4987386;28;20873;-65
2024/01/21 12:26:21;;;;;;;23.03;8.57;;;5.40;96.80;;;;;;5007459;28;20874;-65
2024/01/21 12:28:56;;;;;;;13.13;5.60;;;5.50;96.50;;;;;;4989990;28;20916;-65
2024/01/21 12:31:26;;;;;;;18.43;7.23;;;5.70;97.00;;;;;;4990272;28;20472;-64
2024/01/21 12:33:53;;;;;;;16.33;8.70;;;5.80;96.40;;;;;;5001534;28;20487;-65